Terminal Aerodrome Forecast
Issued by NWS

Home | Current Version | Previous Version | Text Only | Print | Product List | Glossary On
Versions: 1 2 3 4 5 6 7 8 9 10 11 12 13 14 15
000
FTUS44 KCRP 300523
TAFLRD
TAF
KLRD 300523Z 3006/3106 13013KT P6SM SCT040 OVC120
     FM301000 14008KT P6SM BKN025 OVC100
     FM301600 15013KT P6SM SCT025 BKN150
     FM302200 14014KT P6SM BKN050=

USA.gov is the U.S. government's official web portal to all federal, state and local government web resources and services.